Time;durP1;ratioP1;P1;durP2;ratioP2;P2;SDS_P1;SDS_P2;PMS_P1;PMS_P2;Temp;Humidity;BMP_temperature;BMP_pressure;BME280_temperature;BME280_humidity;BME280_pressure;Samples;Min_cycle;Max_cycle;Signal;HPM_P1;HPM_P2
2022/01/15 00:00:06;;;;;;;2.88;0.80;;;;;;;1.24;100.00;98168.22;5152260;27;20051;-56
2022/01/15 00:02:33;;;;;;;8.63;0.75;;;;;;;1.36;100.00;98162.88;5151823;27;20051;-56
2022/01/15 00:04:59;;;;;;;3.45;0.82;;;;;;;1.38;100.00;98147.13;5151906;27;20053;-58
2022/01/15 00:07:25;;;;;;;3.88;0.90;;;;;;;1.35;100.00;98128.88;5151657;27;20561;-56
2022/01/15 00:09:52;;;;;;;2.28;0.70;;;;;;;1.41;100.00;98151.09;5152104;27;20051;-58
2022/01/15 00:12:18;;;;;;;1.95;0.80;;;;;;;1.44;100.00;98147.75;5151944;27;20057;-56
2022/01/15 00:14:46;;;;;;;4.05;0.98;;;;;;;1.49;100.00;98154.84;5151767;27;20057;-56
2022/01/15 00:17:18;;;;;;;1.17;0.65;;;;;;;1.44;100.00;98165.84;5151892;27;20489;-58
2022/01/15 00:19:46;;;;;;;2.35;0.98;;;;;;;1.37;100.00;98183.38;5151544;27;20093;-56
2022/01/15 00:22:14;;;;;;;2.78;0.70;;;;;;;1.41;100.00;98205.09;5151966;27;20103;-56
2022/01/15 00:24:41;;;;;;;0.60;0.60;;;;;;;1.38;100.00;98173.34;5151655;27;20050;-56
2022/01/15 00:27:08;;;;;;;1.27;0.70;;;;;;;1.44;100.00;98182.84;5150569;27;20042;-57
2022/01/15 00:29:35;;;;;;;0.65;0.52;;;;;;;1.54;100.00;98170.88;5151517;27;20508;-58
2022/01/15 00:32:04;;;;;;;2.13;0.70;;;;;;;1.53;100.00;98142.25;5151477;27;20051;-58
2022/01/15 00:34:31;;;;;;;4.97;1.13;;;;;;;1.55;100.00;98113.78;5150955;27;20042;-58
2022/01/15 00:36:57;;;;;;;6.25;0.77;;;;;;;1.54;100.00;98119.53;5151406;27;20050;-57
2022/01/15 00:39:24;;;;;;;3.03;0.95;;;;;;;1.64;100.00;98092.91;5151558;27;20054;-57
2022/01/15 00:41:51;;;;;;;4.28;0.95;;;;;;;1.58;100.00;98056.41;5151719;27;20046;-57
2022/01/15 00:44:17;;;;;;;1.92;0.70;;;;;;;1.62;100.00;98026.81;5151550;27;20067;-58
2022/01/15 00:46:43;;;;;;;1.52;1.00;;;;;;;1.69;100.00;97985.75;5151226;27;20432;-56
2022/01/15 00:49:11;;;;;;;0.90;0.57;;;;;;;1.62;100.00;97970.09;5151633;27;20114;-57
2022/01/15 00:51:37;;;;;;;3.72;1.00;;;;;;;1.77;100.00;97976.78;5151127;27;20505;-57
2022/01/15 00:54:04;;;;;;;1.73;0.90;;;;;;;1.74;100.00;97926.88;5151302;27;20047;-55
2022/01/15 00:56:30;;;;;;;4.53;0.60;;;;;;;1.73;100.00;97892.09;5151423;27;20406;-55
2022/01/15 00:58:56;;;;;;;3.83;0.70;;;;;;;1.74;100.00;97902.56;5151146;27;20046;-56
2022/01/15 01:01:23;;;;;;;1.92;0.88;;;;;;;1.78;100.00;97944.00;5151120;27;20429;-56
2022/01/15 01:03:50;;;;;;;1.45;0.60;;;;;;;1.71;100.00;97964.59;5150933;27;20054;-56
2022/01/15 01:06:17;;;;;;;1.48;0.60;;;;;;;1.69;100.00;97983.03;5151014;27;20110;-58
2022/01/15 01:08:43;;;;;;;1.55;0.60;;;;;;;1.65;100.00;97972.13;5150959;27;20055;-58
2022/01/15 01:11:12;;;;;;;3.25;0.77;;;;;;;1.62;100.00;97960.06;5151229;27;20523;-57
2022/01/15 01:20:03;;;;;;;2.92;0.80;;;;;;;1.63;100.00;97977.88;5151020;27;20078;-58
2022/01/15 01:24:42;;;;;;;3.20;0.90;;;;;;;1.62;100.00;98048.44;5151334;27;20931;-56
2022/01/15 01:27:13;;;;;;;4.05;0.77;;;;;;;1.69;100.00;98062.19;5150863;27;20069;-57
2022/01/15 01:29:52;;;;;;;1.75;0.70;;;;;;;1.63;100.00;98069.72;5150936;27;20110;-58
2022/01/15 01:32:36;;;;;;;0.43;0.43;;;;;;;1.67;100.00;98071.72;5150742;27;20046;-56
2022/01/15 01:35:09;;;;;;;;;;;;;;;1.67;100.00;98075.25;5150581;27;20516;-57
2022/01/15 01:37:40;;;;;;;3.08;0.65;;;;;;;1.66;100.00;98046.63;5151924;27;20315;-58
2022/01/15 01:40:17;;;;;;;1.77;0.65;;;;;;;1.64;100.00;98011.84;5154681;27;20047;-57
2022/01/15 01:42:54;;;;;;;1.88;0.50;;;;;;;1.54;100.00;97995.28;5154421;27;20043;-58
2022/01/15 01:45:20;;;;;;;1.20;0.63;;;;;;;1.64;100.00;98002.97;5154187;27;20046;-56
2022/01/15 01:47:46;;;;;;;2.58;0.65;;;;;;;1.79;100.00;97988.78;5154585;27;20054;-57
2022/01/15 01:50:15;;;;;;;5.10;0.95;;;;;;;1.78;100.00;97943.22;5154051;27;20058;-58
2022/01/15 01:52:44;;;;;;;1.45;0.52;;;;;;;1.71;100.00;97919.44;5154264;27;20513;-58
2022/01/15 01:55:11;;;;;;;4.18;0.57;;;;;;;1.77;100.00;97922.72;5154263;27;20043;-58
2022/01/15 01:57:37;;;;;;;2.40;0.70;;;;;;;1.74;100.00;97905.28;5154182;27;20046;-58
2022/01/15 02:00:06;;;;;;;2.95;0.68;;;;;;;1.71;100.00;97924.84;5154195;27;20821;-58
2022/01/15 02:02:32;;;;;;;2.58;0.73;;;;;;;1.78;100.00;97932.41;5154149;27;20050;-57
2022/01/15 02:04:58;;;;;;;0.50;0.50;;;;;;;1.83;100.00;97941.09;5154336;27;20047;-57
2022/01/15 02:07:26;;;;;;;1.50;0.60;;;;;;;1.78;100.00;97948.63;5154167;27;20572;-57
2022/01/15 02:09:53;;;;;;;3.03;0.70;;;;;;;1.84;100.00;98012.91;5154430;27;20115;-57
2022/01/15 02:12:20;;;;;;;1.02;0.60;;;;;;;1.75;100.00;97993.31;5153817;27;20054;-55
2022/01/15 02:14:46;;;;;;;2.80;0.50;;;;;;;1.66;100.00;98006.09;5154144;27;20630;-57
2022/01/15 02:17:16;;;;;;;0.40;0.40;;;;;;;1.81;100.00;98029.00;5153979;27;20473;-56
2022/01/15 02:19:57;;;;;;;2.88;0.60;;;;;;;1.77;100.00;98003.78;5153921;27;20054;-57
2022/01/15 02:25:08;;;;;;;0.32;0.32;;;;;;;1.79;100.00;97974.50;5153548;27;20057;-55
2022/01/15 02:27:34;;;;;;;1.95;0.40;;;;;;;1.72;100.00;98021.00;5153781;27;20043;-57
2022/01/15 02:30:03;;;;;;;0.82;0.50;;;;;;;1.68;100.00;98059.81;5153373;27;20049;-58
2022/01/15 02:32:32;;;;;;;1.98;0.70;;;;;;;1.73;100.00;98082.00;5153827;27;20413;-57
2022/01/15 02:34:59;;;;;;;2.75;0.40;;;;;;;1.80;100.00;98090.38;5152701;27;20050;-57
2022/01/15 02:37:25;;;;;;;1.30;0.80;;;;;;;1.79;100.00;98091.47;5153331;27;20043;-57
2022/01/15 02:39:51;;;;;;;4.38;0.73;;;;;;;1.80;100.00;98132.81;5153343;27;20051;-57
2022/01/15 02:42:17;;;;;;;3.42;0.60;;;;;;;1.74;100.00;98153.84;5153453;27;20053;-56
2022/01/15 02:44:44;;;;;;;0.95;0.68;;;;;;;1.79;100.00;98172.56;5153273;27;20077;-58
2022/01/15 02:49:55;;;;;;;1.88;0.73;;;;;;;1.70;100.00;98147.53;5152406;27;20057;-57
2022/01/15 02:52:22;;;;;;;2.22;0.70;;;;;;;1.70;100.00;98139.44;5153409;27;20061;-57
2022/01/15 02:54:48;;;;;;;0.80;0.70;;;;;;;1.76;100.00;98089.44;5153195;27;20043;-56
2022/01/15 02:57:14;;;;;;;1.95;0.70;;;;;;;1.76;100.00;98062.41;5152986;27;20047;-57
2022/01/15 02:59:41;;;;;;;0.90;0.68;;;;;;;1.65;100.00;97993.72;5153159;27;20050;-56
2022/01/15 03:02:07;;;;;;;3.78;0.40;;;;;;;1.76;100.00;97978.66;5153012;27;20054;-56
2022/01/15 03:04:33;;;;;;;1.65;0.50;;;;;;;1.91;100.00;97947.50;5153177;27;20042;-56
2022/01/15 03:06:59;;;;;;;0.50;0.50;;;;;;;1.94;100.00;97924.41;5152861;27;20050;-57
2022/01/15 03:09:26;;;;;;;2.83;0.70;;;;;;;1.79;100.00;97913.13;5152981;27;20085;-57
2022/01/15 03:11:59;;;;;;;0.73;0.60;;;;;;;1.88;100.00;97926.56;5152694;27;20422;-56
2022/01/15 03:14:25;;;;;;;1.67;0.65;;;;;;;1.90;100.00;97940.53;5152857;27;20099;-58
2022/01/15 03:16:52;;;;;;;2.17;0.60;;;;;;;1.88;100.00;97983.31;5152855;27;20050;-57
2022/01/15 03:19:18;;;;;;;4.03;1.00;;;;;;;1.83;100.00;98051.06;5152442;27;20428;-58
2022/01/15 03:21:44;;;;;;;3.58;0.70;;;;;;;1.85;100.00;98146.13;5152726;27;20047;-58
2022/01/15 03:24:10;;;;;;;3.38;0.60;;;;;;;1.74;100.00;98243.03;5152381;27;20046;-57
2022/01/15 03:26:37;;;;;;;3.50;0.73;;;;;;;1.70;100.00;98312.34;5152902;27;20091;-58
2022/01/15 03:29:03;;;;;;;2.80;0.60;;;;;;;1.63;100.00;98339.88;5152347;27;20051;-57
2022/01/15 03:31:30;;;;;;;1.33;0.65;;;;;;;1.61;100.00;98365.63;5152803;27;20043;-56
2022/01/15 03:33:56;;;;;;;3.92;0.80;;;;;;;1.65;100.00;98377.38;5152072;27;20054;-58
2022/01/15 03:36:22;;;;;;;4.30;0.70;;;;;;;1.58;100.00;98372.47;5152593;27;20139;-57
2022/01/15 03:38:48;;;;;;;0.65;0.60;;;;;;;1.63;100.00;98366.09;5152181;27;20568;-56
2022/01/15 03:41:15;;;;;;;1.75;0.60;;;;;;;1.73;100.00;98336.00;5152274;27;20505;-57
2022/01/15 03:43:41;;;;;;;3.20;0.70;;;;;;;1.80;100.00;98321.97;5152319;27;20133;-57
2022/01/15 03:46:08;;;;;;;0.70;0.60;;;;;;;1.90;100.00;98281.06;5152306;27;20402;-58
2022/01/15 03:48:34;;;;;;;1.77;0.70;;;;;;;1.80;100.00;98228.19;5152672;27;20424;-56
2022/01/15 03:51:00;;;;;;;2.92;0.70;;;;;;;1.82;100.00;98190.03;5152490;27;20046;-57
2022/01/15 03:53:26;;;;;;;2.80;0.50;;;;;;;1.81;100.00;98174.94;5152559;27;20049;-56
2022/01/15 03:55:53;;;;;;;3.20;0.82;;;;;;;1.79;100.00;98131.22;5152210;27;20455;-57
2022/01/15 03:58:19;;;;;;;3.78;0.82;;;;;;;1.78;100.00;98122.34;5152246;27;20052;-58
2022/01/15 04:00:46;;;;;;;6.88;0.80;;;;;;;1.92;100.00;98126.66;5151651;27;20084;-58
2022/01/15 04:03:13;;;;;;;2.67;0.70;;;;;;;1.86;100.00;98132.25;5152204;27;20137;-58
2022/01/15 04:05:39;;;;;;;3.00;0.90;;;;;;;1.77;100.00;98136.97;5152008;27;20050;-58
2022/01/15 04:08:06;;;;;;;4.03;1.33;;;;;;;1.86;100.00;98142.28;5152026;27;20433;-58
2022/01/15 04:10:32;;;;;;;4.63;0.80;;;;;;;1.77;100.00;98117.28;5151937;27;20054;-57
2022/01/15 04:12:59;;;;;;;1.15;0.60;;;;;;;1.77;100.00;98155.09;5151683;27;20100;-57
2022/01/15 04:15:25;;;;;;;4.40;0.77;;;;;;;1.82;100.00;98135.97;5151764;27;20519;-58
2022/01/15 04:17:52;;;;;;;3.47;1.05;;;;;;;1.80;100.00;98112.00;5151471;27;20046;-58
2022/01/15 04:20:22;;;;;;;0.75;0.60;;;;;;;1.79;100.00;98099.59;5151952;27;20473;-58
2022/01/15 04:22:49;;;;;;;3.92;0.60;;;;;;;1.89;100.00;98101.88;5151617;27;20051;-56
2022/01/15 04:25:17;;;;;;;1.55;0.70;;;;;;;1.93;100.00;98077.66;5151956;27;20046;-57
2022/01/15 04:27:44;;;;;;;1.90;0.70;;;;;;;1.82;100.00;98057.59;5151366;27;20057;-56
2022/01/15 04:30:13;;;;;;;4.35;0.82;;;;;;;1.80;100.00;98087.69;5151598;27;20083;-57
2022/01/15 04:32:39;;;;;;;2.80;0.65;;;;;;;1.77;100.00;98082.16;5151416;27;20046;-56
2022/01/15 04:35:07;;;;;;;3.55;0.68;;;;;;;1.81;100.00;98096.56;5151276;27;20049;-56
2022/01/15 04:37:37;;;;;;;4.03;0.75;;;;;;;1.91;100.00;98117.00;5151773;27;20468;-58
2022/01/15 04:40:06;;;;;;;1.00;0.60;;;;;;;2.05;100.00;98114.75;5151163;27;20497;-58
2022/01/15 04:42:32;;;;;;;1.65;0.60;;;;;;;1.94;100.00;98094.69;5151420;27;20442;-57
2022/01/15 04:44:59;;;;;;;1.65;0.60;;;;;;;1.91;100.00;98101.56;5151248;27;20047;-57
2022/01/15 04:47:25;;;;;;;1.90;0.60;;;;;;;1.89;100.00;98133.53;5151188;27;20047;-58
2022/01/15 04:49:54;;;;;;;3.15;0.63;;;;;;;1.98;100.00;98104.50;5151375;27;20561;-58
2022/01/15 04:52:21;;;;;;;0.70;0.70;;;;;;;1.95;100.00;98058.44;5151419;27;20092;-57
2022/01/15 04:54:47;;;;;;;1.65;0.70;;;;;;;1.94;100.00;98046.84;5151201;27;20050;-57
2022/01/15 04:57:13;;;;;;;2.10;0.73;;;;;;;2.07;100.00;98009.81;5151331;27;20050;-58
2022/01/15 04:59:39;;;;;;;4.25;0.70;;;;;;;1.94;100.00;97944.13;5151071;27;20055;-56
2022/01/15 05:02:06;;;;;;;2.22;0.70;;;;;;;1.98;100.00;97911.81;5151170;27;20050;-57
2022/01/15 05:04:32;;;;;;;4.30;0.70;;;;;;;1.96;100.00;97895.91;5151361;27;20047;-56
2022/01/15 05:06:58;;;;;;;2.08;0.52;;;;;;;1.94;100.00;97906.28;5151320;27;20046;-57
2022/01/15 05:09:25;;;;;;;2.42;1.00;;;;;;;1.93;100.00;97896.56;5151502;27;20115;-58
2022/01/15 05:12:00;;;;;;;3.80;0.93;;;;;;;2.02;100.00;97918.88;5151116;27;20054;-58
2022/01/15 05:14:27;;;;;;;2.25;0.75;;;;;;;2.02;100.00;97929.69;5154859;27;20053;-57
2022/01/15 05:16:53;;;;;;;4.57;0.80;;;;;;;1.94;100.00;97938.72;5154617;27;20054;-57
2022/01/15 05:19:19;;;;;;;3.33;0.70;;;;;;;1.88;100.00;97962.47;5154509;27;20406;-57
2022/01/15 05:21:45;;;;;;;3.90;0.63;;;;;;;1.99;100.00;98014.16;5154599;27;20047;-58
2022/01/15 05:24:12;;;;;;;3.53;0.70;;;;;;;2.01;100.00;98046.28;5154673;27;20046;-57
2022/01/15 05:26:39;;;;;;;0.50;0.50;;;;;;;1.90;100.00;98102.69;5154604;27;20082;-58
2022/01/15 05:29:05;;;;;;;1.40;0.70;;;;;;;1.89;100.00;98174.84;5154637;27;20505;-56
2022/01/15 05:31:31;;;;;;;4.68;0.60;;;;;;;1.89;100.00;98247.03;5154443;27;20057;-58
2022/01/15 05:33:57;;;;;;;5.32;0.93;;;;;;;1.76;100.00;98323.75;5153918;27;20054;-56
2022/01/15 05:36:24;;;;;;;3.55;0.77;;;;;;;1.65;100.00;98401.69;5154502;27;20099;-58
2022/01/15 05:38:51;;;;;;;1.90;0.82;;;;;;;1.70;100.00;98470.97;5153975;27;20051;-57
2022/01/15 05:41:18;;;;;;;0.93;0.70;;;;;;;1.67;100.00;98487.81;5154536;27;20050;-56
2022/01/15 05:43:45;;;;;;;1.83;0.70;;;;;;;1.68;100.00;98511.03;5154469;27;20051;-57
2022/01/15 05:46:11;;;;;;;1.40;0.65;;;;;;;1.57;100.00;98533.00;5154143;27;20111;-56
2022/01/15 05:48:37;;;;;;;0.90;0.60;;;;;;;1.46;100.00;98542.53;5154449;27;20050;-55
2022/01/15 05:51:03;;;;;;;0.80;0.60;;;;;;;1.36;100.00;98554.44;5154260;27;20356;-56
2022/01/15 05:53:29;;;;;;;1.15;0.80;;;;;;;1.31;100.00;98551.13;5154125;27;20047;-57
2022/01/15 05:55:56;;;;;;;4.85;1.67;;;;;;;1.27;100.00;98534.78;5154318;27;20043;-57
2022/01/15 05:58:22;;;;;;;1.83;1.00;;;;;;;1.24;100.00;98530.00;5153752;27;20398;-58
2022/01/15 06:00:49;;;;;;;1.40;0.70;;;;;;;1.26;100.00;98522.38;5153891;27;20042;-56
2022/01/15 06:03:15;;;;;;;3.63;0.60;;;;;;;1.30;100.00;98522.53;5154075;27;20175;-56
2022/01/15 06:05:41;;;;;;;1.30;0.52;;;;;;;1.40;100.00;98523.00;5153812;27;20055;-58
2022/01/15 06:08:07;;;;;;;2.33;0.90;;;;;;;1.45;100.00;98529.34;5153751;27;20057;-57
2022/01/15 06:10:34;;;;;;;3.80;1.17;;;;;;;1.45;100.00;98540.16;5153851;27;20097;-57
2022/01/15 06:13:01;;;;;;;1.52;0.70;;;;;;;1.47;100.00;98554.94;5153902;27;20103;-56
2022/01/15 06:15:27;;;;;;;3.25;0.90;;;;;;;1.44;100.00;98555.56;5153684;27;20047;-56
2022/01/15 06:17:54;;;;;;;3.40;0.85;;;;;;;1.39;100.00;98555.72;5153622;27;20051;-57
2022/01/15 06:20:20;;;;;;;2.90;0.90;;;;;;;1.41;100.00;98567.81;5153634;27;20182;-57
2022/01/15 06:22:48;;;;;;;1.90;0.60;;;;;;;1.40;100.00;98568.94;5153458;27;20097;-56
2022/01/15 06:25:14;;;;;;;5.45;0.80;;;;;;;1.45;100.00;98567.16;5152135;27;20046;-56
2022/01/15 06:27:40;;;;;;;5.82;0.75;;;;;;;1.51;100.00;98555.09;5153234;27;20050;-56
2022/01/15 06:30:07;;;;;;;2.42;0.80;;;;;;;1.49;100.00;98554.59;5153416;27;20529;-56
2022/01/15 06:32:36;;;;;;;2.65;0.70;;;;;;;1.55;100.00;98556.03;5153566;27;20057;-58
2022/01/15 06:35:05;;;;;;;4.40;0.93;;;;;;;1.53;100.00;98537.44;5152849;27;20047;-56
2022/01/15 06:37:31;;;;;;;1.88;0.80;;;;;;;1.61;100.00;98565.56;5153177;27;20050;-57
2022/01/15 06:39:57;;;;;;;1.45;0.82;;;;;;;1.38;100.00;98600.06;5153443;27;20054;-58
2022/01/15 06:42:23;;;;;;;2.42;0.80;;;;;;;1.24;100.00;98618.34;5153284;27;20052;-58
2022/01/15 06:44:50;;;;;;;1.75;0.88;;;;;;;1.29;100.00;98613.56;5153051;27;20047;-58
2022/01/15 06:47:16;;;;;;;0.68;0.65;;;;;;;1.21;100.00;98610.88;5153377;27;20490;-58
2022/01/15 06:49:42;;;;;;;1.20;0.80;;;;;;;1.25;100.00;98606.41;5153020;27;20062;-58
2022/01/15 06:52:09;;;;;;;9.50;0.77;;;;;;;1.41;100.00;98616.44;5153602;27;20129;-58
2022/01/15 06:54:35;;;;;;;5.22;0.80;;;;;;;1.50;100.00;98616.44;5152727;27;20047;-58
2022/01/15 06:57:02;;;;;;;3.95;0.50;;;;;;;1.54;100.00;98633.59;5152923;27;20055;-58
2022/01/15 06:59:28;;;;;;;3.33;0.93;;;;;;;1.61;100.00;98625.81;5152817;27;20047;-58
2022/01/15 07:01:54;;;;;;;1.92;0.82;;;;;;;1.64;100.00;98627.88;5152845;27;20061;-58
2022/01/15 07:04:20;;;;;;;2.22;0.75;;;;;;;1.63;100.00;98634.41;5152619;27;20051;-58
2022/01/15 07:06:46;;;;;;;1.98;0.70;;;;;;;1.54;100.00;98640.91;5153001;27;20051;-58
2022/01/15 07:09:14;;;;;;;1.63;0.70;;;;;;;1.58;100.00;98649.97;5152828;27;20058;-57
2022/01/15 07:11:40;;;;;;;3.70;0.77;;;;;;;1.51;100.00;98658.53;5152663;27;20497;-58
2022/01/15 07:14:07;;;;;;;2.63;0.77;;;;;;;1.59;100.00;98655.03;5152610;27;20091;-58
2022/01/15 07:16:34;;;;;;;4.28;1.00;;;;;;;1.67;100.00;98652.66;5152671;27;20042;-58
2022/01/15 07:19:00;;;;;;;6.30;1.35;;;;;;;1.68;100.00;98660.44;5152628;27;20043;-58
2022/01/15 07:21:26;;;;;;;2.33;1.10;;;;;;;1.73;100.00;98660.28;5152408;27;20497;-58
2022/01/15 07:23:53;;;;;;;2.88;0.90;;;;;;;1.70;100.00;98660.94;5152405;27;20520;-58
2022/01/15 07:26:20;;;;;;;4.40;0.90;;;;;;;1.68;100.00;98668.56;5152437;27;20054;-58
2022/01/15 07:28:46;;;;;;;3.45;0.68;;;;;;;1.72;100.00;98663.31;5152684;27;20181;-56
2022/01/15 07:31:12;;;;;;;4.60;0.88;;;;;;;1.68;100.00;98668.56;5152468;27;20477;-58
2022/01/15 07:33:38;;;;;;;2.25;0.75;;;;;;;1.73;100.00;98678.41;5152319;27;20417;-57
2022/01/15 07:36:06;;;;;;;2.97;1.02;;;;;;;1.76;100.00;98662.34;5151527;27;20428;-56
2022/01/15 07:38:32;;;;;;;5.40;0.90;;;;;;;1.59;100.00;98676.66;5152272;27;20049;-56
2022/01/15 07:40:59;;;;;;;8.18;0.82;;;;;;;1.66;100.00;98681.56;5152793;27;20047;-56
2022/01/15 07:43:27;;;;;;;2.60;0.75;;;;;;;1.75;100.00;98690.50;5152710;27;20462;-56
2022/01/15 07:45:53;;;;;;;1.80;0.70;;;;;;;1.68;100.00;98702.91;5152121;27;20054;-57
2022/01/15 07:48:21;;;;;;;2.03;0.63;;;;;;;1.79;100.00;98691.44;5152678;27;20054;-56
2022/01/15 07:50:48;;;;;;;5.03;1.23;;;;;;;1.78;100.00;98683.66;5152223;27;20483;-57
2022/01/15 07:53:14;;;;;;;2.55;1.17;;;;;;;1.86;100.00;98683.63;5152199;27;20133;-57
2022/01/15 07:55:40;;;;;;;1.98;0.85;;;;;;;1.93;100.00;98669.63;5152341;27;20053;-57
2022/01/15 07:58:08;;;;;;;3.10;1.13;;;;;;;1.88;100.00;98659.81;5152236;27;20061;-57
2022/01/15 08:00:35;;;;;;;1.52;0.85;;;;;;;2.03;100.00;98652.28;5152266;27;20050;-57
2022/01/15 08:03:01;;;;;;;3.50;0.80;;;;;;;2.18;100.00;98645.59;5152242;27;20051;-57
2022/01/15 08:05:28;;;;;;;4.03;1.30;;;;;;;2.19;100.00;98629.03;5152048;27;20042;-58
2022/01/15 08:07:54;;;;;;;2.67;0.95;;;;;;;2.19;100.00;98601.22;5152303;27;20444;-57
2022/01/15 08:10:20;;;;;;;5.25;0.88;;;;;;;2.04;100.00;98559.28;5152459;27;20053;-56
2022/01/15 08:12:49;;;;;;;4.50;0.95;;;;;;;2.06;100.00;98565.13;5151711;27;20043;-56
2022/01/15 08:15:17;;;;;;;2.08;0.82;;;;;;;2.06;100.00;98554.31;5152328;27;20085;-58
2022/01/15 08:17:44;;;;;;;0.70;0.70;;;;;;;2.10;100.00;98555.28;5151918;27;20042;-56
2022/01/15 08:20:11;;;;;;;0.77;0.70;;;;;;;2.10;100.00;98577.72;5152020;27;20491;-58
2022/01/15 08:22:40;;;;;;;1.63;0.82;;;;;;;2.17;100.00;98584.53;5151821;27;20046;-57
2022/01/15 08:25:07;;;;;;;2.70;0.80;;;;;;;2.13;100.00;98603.28;5151801;27;20111;-57
2022/01/15 08:27:33;;;;;;;0.68;0.68;;;;;;;2.09;100.00;98621.28;5151694;27;20050;-58
2022/01/15 08:29:59;;;;;;;2.70;0.90;;;;;;;1.89;100.00;98641.66;5151426;27;20059;-57
2022/01/15 08:32:26;;;;;;;3.40;0.82;;;;;;;1.93;100.00;98672.34;5151804;27;20072;-57
2022/01/15 08:34:53;;;;;;;6.03;1.00;;;;;;;1.98;100.00;98677.59;5151294;27;20042;-58
2022/01/15 08:37:19;;;;;;;2.75;0.90;;;;;;;1.93;100.00;98685.06;5152034;27;20390;-57
2022/01/15 08:39:45;;;;;;;3.67;0.95;;;;;;;1.97;100.00;98704.97;5151760;27;20367;-58
2022/01/15 08:42:11;;;;;;;2.83;0.73;;;;;;;2.14;100.00;98712.28;5151540;27;20047;-58
2022/01/15 08:44:41;;;;;;;1.85;0.75;;;;;;;2.14;100.00;98688.72;5151441;27;20497;-58
2022/01/15 08:47:08;;;;;;;3.03;0.80;;;;;;;2.19;100.00;98666.91;5150656;27;20088;-58
2022/01/15 08:49:34;;;;;;;3.28;1.00;;;;;;;2.22;100.00;98633.81;5151483;27;20047;-57
2022/01/15 08:52:02;;;;;;;2.33;0.80;;;;;;;2.22;100.00;98571.59;5151570;27;20047;-57
2022/01/15 08:54:28;;;;;;;3.80;1.20;;;;;;;2.20;100.00;98505.44;5151463;27;20057;-58
2022/01/15 08:56:55;;;;;;;2.78;1.20;;;;;;;2.34;100.00;98450.00;5151785;27;20050;-58
2022/01/15 08:59:23;;;;;;;3.70;0.85;;;;;;;2.27;100.00;98386.75;5151456;27;20679;-57
2022/01/15 09:01:49;;;;;;;1.48;0.80;;;;;;;2.21;100.00;98321.22;5151395;27;20077;-57
2022/01/15 09:04:16;;;;;;;3.65;0.68;;;;;;;2.39;100.00;98289.41;5151445;27;20488;-58
2022/01/15 09:06:43;;;;;;;1.67;0.70;;;;;;;2.34;100.00;98162.50;5151505;27;20530;-57
2022/01/15 09:09:10;;;;;;;2.10;0.75;;;;;;;2.36;100.00;98077.19;5151097;27;20582;-58
2022/01/15 09:11:36;;;;;;;5.07;0.60;;;;;;;2.46;100.00;97994.78;5151292;27;20046;-57
2022/01/15 09:14:03;;;;;;;2.05;0.70;;;;;;;2.53;100.00;97943.63;5151070;27;20046;-58
2022/01/15 09:16:29;;;;;;;0.60;0.60;;;;;;;2.32;100.00;97880.78;5150993;27;20047;-57
2022/01/15 09:18:56;;;;;;;2.63;0.70;;;;;;;2.19;100.00;97873.81;5150985;27;20047;-58
2022/01/15 09:21:22;;;;;;;1.35;0.80;;;;;;;2.22;100.00;97892.84;5150796;27;20051;-58
2022/01/15 09:23:49;;;;;;;1.88;0.50;;;;;;;2.29;100.00;97895.75;5150849;27;20054;-57
2022/01/15 09:26:21;;;;;;;3.50;1.02;;;;;;;2.41;100.00;97884.13;5150712;27;20133;-56
2022/01/15 09:31:32;;;;;;;2.72;0.70;;;;;;;2.57;100.00;97914.75;5150770;27;20576;-58
2022/01/15 09:33:58;;;;;;;0.90;0.55;;;;;;;2.48;100.00;97892.47;5150896;27;20058;-58
2022/01/15 09:36:25;;;;;;;1.50;0.80;;;;;;;2.52;100.00;97893.34;5150231;27;20086;-57
2022/01/15 09:38:51;;;;;;;6.20;0.80;;;;;;;2.45;100.00;97909.38;5150506;27;20054;-56
2022/01/15 09:41:20;;;;;;;1.52;0.65;;;;;;;2.52;100.00;97960.19;5150886;27;20138;-58
2022/01/15 09:43:46;;;;;;;1.55;0.70;;;;;;;2.53;100.00;97961.75;5150481;27;20074;-57
2022/01/15 09:46:15;;;;;;;3.90;0.80;;;;;;;2.48;100.00;97991.75;5150530;27;20119;-58
2022/01/15 09:48:44;;;;;;;4.57;1.05;;;;;;;2.63;100.00;97993.75;5150599;27;20098;-56
2022/01/15 09:51:11;;;;;;;5.70;1.00;;;;;;;2.56;100.00;97985.44;5150696;27;20050;-58
2022/01/15 09:53:38;;;;;;;1.10;0.82;;;;;;;2.47;100.00;97990.97;5150665;27;20049;-56
2022/01/15 09:56:06;;;;;;;3.05;0.80;;;;;;;2.50;100.00;98033.59;5150259;27;20892;-58
2022/01/15 09:58:34;;;;;;;1.77;0.93;;;;;;;2.50;100.00;98071.47;5151280;27;20047;-58
2022/01/15 10:01:01;;;;;;;1.48;0.88;;;;;;;2.51;100.00;98080.34;5153931;27;20050;-58
2022/01/15 10:03:28;;;;;;;1.65;0.98;;;;;;;2.58;100.00;98086.78;5154282;27;20086;-58
2022/01/15 10:05:55;;;;;;;2.38;0.90;;;;;;;2.53;100.00;98105.16;5153943;27;20076;-58
2022/01/15 10:08:21;;;;;;;3.75;0.85;;;;;;;2.56;100.00;98099.84;5153722;27;20055;-58
2022/01/15 10:10:50;;;;;;;5.35;0.93;;;;;;;2.54;100.00;98115.66;5153721;27;20180;-58
2022/01/15 10:13:19;;;;;;;2.95;1.00;;;;;;;2.40;100.00;98125.19;5153723;27;20528;-57
2022/01/15 10:15:49;;;;;;;1.58;0.60;;;;;;;2.44;100.00;98139.66;5153767;27;20090;-56
2022/01/15 10:18:21;;;;;;;2.55;0.90;;;;;;;2.30;100.00;98112.88;5153559;27;20099;-57
2022/01/15 10:20:47;;;;;;;4.22;1.02;;;;;;;2.27;100.00;98144.13;5153602;27;20042;-58
2022/01/15 10:23:20;;;;;;;0.70;0.70;;;;;;;2.33;100.00;98136.56;5153495;27;20058;-58
2022/01/15 10:26:13;;;;;;;2.65;0.95;;;;;;;2.38;100.00;98130.16;5153550;27;20049;-58
2022/01/15 10:28:55;;;;;;;1.27;0.80;;;;;;;2.32;100.00;98091.72;5153670;27;20058;-58
2022/01/15 10:31:24;;;;;;;3.83;0.80;;;;;;;2.46;100.00;98092.19;5153293;27;20535;-58
2022/01/15 10:33:51;;;;;;;3.70;0.80;;;;;;;2.51;100.00;98069.53;5153530;27;20051;-57
2022/01/15 10:36:22;;;;;;;2.38;0.80;;;;;;;2.41;100.00;98016.66;5153044;27;20083;-58
2022/01/15 10:39:24;;;;;;;1.63;0.80;;;;;;;2.38;100.00;98017.34;5210879;27;20332;-56
2022/01/15 10:41:51;;;;;;;3.13;0.93;;;;;;;2.42;100.00;98033.69;5189750;27;20424;-58
2022/01/15 10:44:33;;;;;;;5.28;1.10;;;;;;;2.41;100.00;98034.81;5189813;27;20058;-58
2022/01/15 10:47:05;;;;;;;2.38;0.90;;;;;;;2.42;100.00;98039.09;5189612;27;20053;-57
2022/01/15 10:49:32;;;;;;;3.17;0.90;;;;;;;2.36;100.00;98063.66;5189891;27;20050;-56
2022/01/15 10:52:09;;;;;;;1.40;1.30;;;;;;;2.37;100.00;98088.81;5189512;27;20531;-57
2022/01/15 10:54:48;;;;;;;2.58;1.08;;;;;;;2.46;100.00;98094.88;5189574;27;20136;-57
2022/01/15 10:57:15;;;;;;;2.38;0.95;;;;;;;2.46;100.00;98075.16;5189569;27;20489;-57
2022/01/15 10:59:55;;;;;;;3.42;1.00;;;;;;;2.47;100.00;98064.00;5189610;27;20423;-58
2022/01/15 11:02:22;;;;;;;3.22;1.20;;;;;;;2.50;100.00;98082.28;5189608;27;20098;-56
2022/01/15 11:04:48;;;;;;;6.07;1.00;;;;;;;2.48;100.00;98086.44;5189573;27;20056;-57
2022/01/15 11:07:17;;;;;;;1.55;0.70;;;;;;;2.39;100.00;98089.25;5189505;27;20050;-57
2022/01/15 11:09:45;;;;;;;1.85;1.08;;;;;;;2.41;100.00;98132.19;5189694;27;20042;-56
2022/01/15 11:12:12;;;;;;;1.27;0.73;;;;;;;2.33;100.00;98136.56;5189031;27;20042;-56
2022/01/15 11:14:39;;;;;;;2.88;1.25;;;;;;;2.38;100.00;98144.47;5189490;27;20049;-57
2022/01/15 11:17:07;;;;;;;3.30;0.77;;;;;;;2.35;100.00;98155.97;5189363;27;20056;-56
2022/01/15 11:19:35;;;;;;;5.30;1.10;;;;;;;2.45;100.00;98206.16;5189253;27;20046;-58
2022/01/15 11:22:03;;;;;;;0.68;0.65;;;;;;;2.38;100.00;98163.41;5189112;27;20046;-57
2022/01/15 11:24:30;;;;;;;3.10;0.90;;;;;;;2.27;100.00;98192.81;5189023;27;20519;-58
2022/01/15 11:26:58;;;;;;;1.10;0.95;;;;;;;2.48;100.00;98221.72;5189067;27;20046;-58
2022/01/15 11:29:26;;;;;;;1.25;0.70;;;;;;;2.55;100.00;98154.31;5189458;27;20049;-57
2022/01/15 11:31:56;;;;;;;2.65;0.80;;;;;;;2.62;100.00;98142.94;5188985;27;20106;-58
2022/01/15 11:34:24;;;;;;;3.22;0.98;;;;;;;2.47;100.00;98088.38;5189126;27;20052;-58
2022/01/15 11:36:51;;;;;;;4.68;1.15;;;;;;;2.48;100.00;98092.63;5188893;27;20125;-57
2022/01/15 11:39:20;;;;;;;2.13;0.90;;;;;;;2.38;100.00;98122.06;5188497;27;20054;-58
2022/01/15 11:41:49;;;;;;;1.50;1.00;;;;;;;2.44;100.00;98132.31;5189161;27;20050;-58
2022/01/15 11:44:18;;;;;;;1.73;1.05;;;;;;;2.54;100.00;98152.75;5188928;27;20046;-58
2022/01/15 11:46:49;;;;;;;2.65;1.25;;;;;;;2.62;100.00;98119.38;5188707;27;20571;-56
2022/01/15 11:49:36;;;;;;;0.77;0.75;;;;;;;2.58;100.00;98062.44;5184255;27;20595;-56
2022/01/15 11:52:42;;;;;;;2.35;1.00;;;;;;;2.51;100.00;98043.28;5174750;27;20110;-57